sensor_id;sensor_type;location;lat;lon;timestamp;P1;durP1;ratioP1;P2;durP2;ratioP2
35330;SDS011;21441;52.190;20.910;2023-11-21T00:02:26;29.83;;;17.98;;
35330;SDS011;21441;52.190;20.910;2023-11-21T00:04:53;29.33;;;17.25;;
35330;SDS011;21441;52.190;20.910;2023-11-21T00:07:22;28.67;;;16.70;;
35330;SDS011;21441;52.190;20.910;2023-11-21T00:09:49;29.45;;;18.63;;
35330;SDS011;21441;52.190;20.910;2023-11-21T00:12:16;31.33;;;18.40;;
35330;SDS011;21441;52.190;20.910;2023-11-21T00:14:43;29.73;;;19.13;;
35330;SDS011;21441;52.190;20.910;2023-11-21T00:17:11;28.15;;;17.02;;
35330;SDS011;21441;52.190;20.910;2023-11-21T00:19:38;29.83;;;17.77;;
35330;SDS011;21441;52.190;20.910;2023-11-21T00:22:05;33.25;;;20.88;;
35330;SDS011;21441;52.190;20.910;2023-11-21T00:24:34;33.00;;;19.08;;
35330;SDS011;21441;52.190;20.910;2023-11-21T00:27:01;28.23;;;17.63;;
35330;SDS011;21441;52.190;20.910;2023-11-21T00:29:28;31.67;;;18.85;;
35330;SDS011;21441;52.190;20.910;2023-11-21T00:31:55;32.25;;;19.95;;
35330;SDS011;21441;52.190;20.910;2023-11-21T00:34:22;33.92;;;20.85;;
35330;SDS011;21441;52.190;20.910;2023-11-21T00:36:49;34.40;;;18.88;;
35330;SDS011;21441;52.190;20.910;2023-11-21T00:39:16;32.80;;;20.10;;
35330;SDS011;21441;52.190;20.910;2023-11-21T00:41:45;32.13;;;19.48;;
35330;SDS011;21441;52.190;20.910;2023-11-21T00:44:12;37.92;;;19.70;;
35330;SDS011;21441;52.190;20.910;2023-11-21T00:46:39;29.17;;;18.27;;
35330;SDS011;21441;52.190;20.910;2023-11-21T00:49:07;33.78;;;19.20;;
35330;SDS011;21441;52.190;20.910;2023-11-21T00:51:34;35.05;;;19.15;;
35330;SDS011;21441;52.190;20.910;2023-11-21T00:54:01;35.38;;;20.10;;
35330;SDS011;21441;52.190;20.910;2023-11-21T00:56:28;38.70;;;21.27;;
35330;SDS011;21441;52.190;20.910;2023-11-21T00:58:57;44.75;;;23.33;;
35330;SDS011;21441;52.190;20.910;2023-11-21T01:01:24;44.03;;;22.95;;
35330;SDS011;21441;52.190;20.910;2023-11-21T01:03:51;40.92;;;22.50;;
35330;SDS011;21441;52.190;20.910;2023-11-21T01:06:19;41.17;;;20.80;;
35330;SDS011;21441;52.190;20.910;2023-11-21T01:08:46;41.90;;;22.70;;
35330;SDS011;21441;52.190;20.910;2023-11-21T01:11:13;40.03;;;21.00;;
35330;SDS011;21441;52.190;20.910;2023-11-21T01:13:41;39.75;;;21.77;;
35330;SDS011;21441;52.190;20.910;2023-11-21T01:16:12;37.97;;;20.08;;
35330;SDS011;21441;52.190;20.910;2023-11-21T01:18:39;39.65;;;20.45;;
35330;SDS011;21441;52.190;20.910;2023-11-21T01:21:06;31.30;;;19.13;;
35330;SDS011;21441;52.190;20.910;2023-11-21T01:23:34;34.78;;;20.63;;
35330;SDS011;21441;52.190;20.910;2023-11-21T01:26:02;36.70;;;21.13;;
35330;SDS011;21441;52.190;20.910;2023-11-21T01:28:29;39.08;;;21.10;;
35330;SDS011;21441;52.190;20.910;2023-11-21T01:30:56;37.67;;;21.88;;
35330;SDS011;21441;52.190;20.910;2023-11-21T01:33:25;40.72;;;22.25;;
35330;SDS011;21441;52.190;20.910;2023-11-21T01:35:52;36.95;;;21.17;;
35330;SDS011;21441;52.190;20.910;2023-11-21T01:38:20;35.22;;;20.75;;
35330;SDS011;21441;52.190;20.910;2023-11-21T01:40:47;35.92;;;20.08;;
35330;SDS011;21441;52.190;20.910;2023-11-21T01:43:14;33.78;;;19.85;;
35330;SDS011;21441;52.190;20.910;2023-11-21T01:45:42;33.97;;;20.38;;
35330;SDS011;21441;52.190;20.910;2023-11-21T01:48:10;35.03;;;19.33;;
35330;SDS011;21441;52.190;20.910;2023-11-21T01:50:40;34.85;;;19.05;;
35330;SDS011;21441;52.190;20.910;2023-11-21T01:53:07;35.38;;;20.08;;
35330;SDS011;21441;52.190;20.910;2023-11-21T01:55:35;35.65;;;20.83;;
35330;SDS011;21441;52.190;20.910;2023-11-21T01:58:03;34.88;;;19.45;;
35330;SDS011;21441;52.190;20.910;2023-11-21T02:00:33;33.73;;;18.77;;
35330;SDS011;21441;52.190;20.910;2023-11-21T02:03:00;32.28;;;19.88;;
35330;SDS011;21441;52.190;20.910;2023-11-21T02:05:28;31.13;;;20.13;;
35330;SDS011;21441;52.190;20.910;2023-11-21T02:07:57;31.48;;;19.60;;
35330;SDS011;21441;52.190;20.910;2023-11-21T02:10:24;33.63;;;19.17;;
35330;SDS011;21441;52.190;20.910;2023-11-21T02:12:51;34.45;;;19.35;;
35330;SDS011;21441;52.190;20.910;2023-11-21T02:15:18;29.52;;;18.00;;
35330;SDS011;21441;52.190;20.910;2023-11-21T02:17:46;34.47;;;20.48;;
35330;SDS011;21441;52.190;20.910;2023-11-21T02:20:17;31.80;;;18.63;;
35330;SDS011;21441;52.190;20.910;2023-11-21T02:22:49;29.27;;;17.58;;
35330;SDS011;21441;52.190;20.910;2023-11-21T02:25:18;30.48;;;18.35;;
35330;SDS011;21441;52.190;20.910;2023-11-21T02:27:45;27.48;;;17.13;;
35330;SDS011;21441;52.190;20.910;2023-11-21T02:30:14;30.83;;;18.65;;
35330;SDS011;21441;52.190;20.910;2023-11-21T02:32:41;27.75;;;18.52;;
35330;SDS011;21441;52.190;20.910;2023-11-21T02:35:09;33.67;;;18.73;;
35330;SDS011;21441;52.190;20.910;2023-11-21T02:38:07;27.80;;;18.25;;
35330;SDS011;21441;52.190;20.910;2023-11-21T02:40:34;31.45;;;19.05;;
35330;SDS011;21441;52.190;20.910;2023-11-21T02:43:01;31.15;;;19.35;;
35330;SDS011;21441;52.190;20.910;2023-11-21T02:45:28;30.10;;;17.70;;
35330;SDS011;21441;52.190;20.910;2023-11-21T02:47:55;31.27;;;17.90;;
35330;SDS011;21441;52.190;20.910;2023-11-21T02:50:22;29.13;;;18.65;;
35330;SDS011;21441;52.190;20.910;2023-11-21T02:52:49;30.70;;;18.63;;
35330;SDS011;21441;52.190;20.910;2023-11-21T02:55:18;26.65;;;16.83;;
35330;SDS011;21441;52.190;20.910;2023-11-21T02:57:45;26.90;;;16.65;;
35330;SDS011;21441;52.190;20.910;2023-11-21T03:00:13;23.13;;;15.73;;
35330;SDS011;21441;52.190;20.910;2023-11-21T03:02:40;29.17;;;17.65;;
35330;SDS011;21441;52.190;20.910;2023-11-21T03:05:08;26.30;;;16.48;;
35330;SDS011;21441;52.190;20.910;2023-11-21T03:07:35;26.33;;;17.13;;
35330;SDS011;21441;52.190;20.910;2023-11-21T03:10:04;25.52;;;16.63;;
35330;SDS011;21441;52.190;20.910;2023-11-21T03:12:33;24.85;;;16.92;;
35330;SDS011;21441;52.190;20.910;2023-11-21T03:15:00;28.67;;;16.73;;
35330;SDS011;21441;52.190;20.910;2023-11-21T03:17:27;27.25;;;17.33;;
35330;SDS011;21441;52.190;20.910;2023-11-21T03:19:55;27.95;;;17.67;;
35330;SDS011;21441;52.190;20.910;2023-11-21T03:22:22;28.73;;;17.67;;
35330;SDS011;21441;52.190;20.910;2023-11-21T03:24:50;27.00;;;17.25;;
35330;SDS011;21441;52.190;20.910;2023-11-21T03:27:17;25.55;;;16.17;;
35330;SDS011;21441;52.190;20.910;2023-11-21T03:29:45;27.88;;;17.50;;
35330;SDS011;21441;52.190;20.910;2023-11-21T03:32:12;29.17;;;17.27;;
35330;SDS011;21441;52.190;20.910;2023-11-21T03:34:52;26.10;;;16.52;;
35330;SDS011;21441;52.190;20.910;2023-11-21T03:37:20;27.75;;;16.02;;
35330;SDS011;21441;52.190;20.910;2023-11-21T03:39:48;30.80;;;17.88;;
35330;SDS011;21441;52.190;20.910;2023-11-21T03:42:15;29.67;;;16.50;;
35330;SDS011;21441;52.190;20.910;2023-11-21T03:44:42;25.95;;;16.95;;
35330;SDS011;21441;52.190;20.910;2023-11-21T03:47:10;27.02;;;17.02;;
35330;SDS011;21441;52.190;20.910;2023-11-21T03:50:06;28.40;;;17.20;;
35330;SDS011;21441;52.190;20.910;2023-11-21T03:52:34;27.60;;;18.13;;
35330;SDS011;21441;52.190;20.910;2023-11-21T03:55:01;31.30;;;18.33;;
35330;SDS011;21441;52.190;20.910;2023-11-21T03:57:29;27.17;;;16.45;;
35330;SDS011;21441;52.190;20.910;2023-11-21T03:59:56;29.88;;;17.10;;
35330;SDS011;21441;52.190;20.910;2023-11-21T04:02:25;31.17;;;19.42;;
35330;SDS011;21441;52.190;20.910;2023-11-21T04:04:53;28.75;;;16.92;;
35330;SDS011;21441;52.190;20.910;2023-11-21T04:07:22;26.60;;;16.60;;
35330;SDS011;21441;52.190;20.910;2023-11-21T04:09:49;28.20;;;17.33;;
35330;SDS011;21441;52.190;20.910;2023-11-21T04:12:16;27.63;;;16.92;;
35330;SDS011;21441;52.190;20.910;2023-11-21T04:14:43;25.15;;;15.32;;
35330;SDS011;21441;52.190;20.910;2023-11-21T04:17:10;24.20;;;14.32;;
35330;SDS011;21441;52.190;20.910;2023-11-21T04:19:38;28.25;;;15.63;;
35330;SDS011;21441;52.190;20.910;2023-11-21T04:22:06;23.17;;;14.73;;
35330;SDS011;21441;52.190;20.910;2023-11-21T04:24:33;29.88;;;16.23;;
35330;SDS011;21441;52.190;20.910;2023-11-21T04:27:00;22.45;;;14.57;;
35330;SDS011;21441;52.190;20.910;2023-11-21T04:29:28;24.42;;;15.48;;
35330;SDS011;21441;52.190;20.910;2023-11-21T04:31:56;24.98;;;15.10;;
35330;SDS011;21441;52.190;20.910;2023-11-21T04:34:22;23.40;;;13.95;;
35330;SDS011;21441;52.190;20.910;2023-11-21T04:36:51;23.08;;;15.32;;
35330;SDS011;21441;52.190;20.910;2023-11-21T04:39:18;24.27;;;15.18;;
35330;SDS011;21441;52.190;20.910;2023-11-21T04:41:45;21.20;;;14.70;;
35330;SDS011;21441;52.190;20.910;2023-11-21T04:44:11;20.52;;;12.77;;
35330;SDS011;21441;52.190;20.910;2023-11-21T04:46:38;20.88;;;13.02;;
35330;SDS011;21441;52.190;20.910;2023-11-21T04:49:05;21.73;;;13.98;;
35330;SDS011;21441;52.190;20.910;2023-11-21T04:51:33;20.80;;;14.98;;
35330;SDS011;21441;52.190;20.910;2023-11-21T04:54:01;19.48;;;13.10;;
35330;SDS011;21441;52.190;20.910;2023-11-21T04:56:29;20.92;;;12.93;;
35330;SDS011;21441;52.190;20.910;2023-11-21T04:58:56;21.20;;;13.52;;
35330;SDS011;21441;52.190;20.910;2023-11-21T05:01:23;19.98;;;13.10;;
35330;SDS011;21441;52.190;20.910;2023-11-21T05:03:50;22.50;;;12.52;;
35330;SDS011;21441;52.190;20.910;2023-11-21T05:06:18;20.23;;;13.00;;
35330;SDS011;21441;52.190;20.910;2023-11-21T05:08:45;22.40;;;12.75;;
35330;SDS011;21441;52.190;20.910;2023-11-21T05:11:23;20.25;;;12.20;;
35330;SDS011;21441;52.190;20.910;2023-11-21T05:13:51;20.17;;;12.70;;
35330;SDS011;21441;52.190;20.910;2023-11-21T05:16:19;20.05;;;12.93;;
35330;SDS011;21441;52.190;20.910;2023-11-21T05:18:46;19.52;;;12.20;;
35330;SDS011;21441;52.190;20.910;2023-11-21T05:21:16;20.60;;;12.25;;
35330;SDS011;21441;52.190;20.910;2023-11-21T05:24:01;18.73;;;12.27;;
35330;SDS011;21441;52.190;20.910;2023-11-21T05:26:30;18.98;;;12.27;;
35330;SDS011;21441;52.190;20.910;2023-11-21T05:28:57;19.27;;;12.63;;
35330;SDS011;21441;52.190;20.910;2023-11-21T05:31:25;20.05;;;13.57;;
35330;SDS011;21441;52.190;20.910;2023-11-21T05:33:52;17.70;;;12.18;;
35330;SDS011;21441;52.190;20.910;2023-11-21T05:36:20;19.05;;;11.68;;
35330;SDS011;21441;52.190;20.910;2023-11-21T05:38:47;15.65;;;10.32;;
35330;SDS011;21441;52.190;20.910;2023-11-21T05:41:14;19.58;;;11.57;;
35330;SDS011;21441;52.190;20.910;2023-11-21T05:43:44;17.10;;;10.95;;
35330;SDS011;21441;52.190;20.910;2023-11-21T05:46:11;15.63;;;11.60;;
35330;SDS011;21441;52.190;20.910;2023-11-21T05:48:38;18.33;;;11.48;;
35330;SDS011;21441;52.190;20.910;2023-11-21T05:51:06;20.10;;;11.77;;
35330;SDS011;21441;52.190;20.910;2023-11-21T05:53:33;18.50;;;11.25;;
35330;SDS011;21441;52.190;20.910;2023-11-21T05:56:01;16.75;;;10.77;;
35330;SDS011;21441;52.190;20.910;2023-11-21T05:58:29;16.15;;;10.05;;
35330;SDS011;21441;52.190;20.910;2023-11-21T06:00:58;14.95;;;10.27;;
35330;SDS011;21441;52.190;20.910;2023-11-21T06:03:25;15.98;;;10.15;;
35330;SDS011;21441;52.190;20.910;2023-11-21T06:05:53;15.05;;;10.05;;
35330;SDS011;21441;52.190;20.910;2023-11-21T06:08:21;18.02;;;10.85;;
35330;SDS011;21441;52.190;20.910;2023-11-21T06:10:48;17.00;;;11.02;;
35330;SDS011;21441;52.190;20.910;2023-11-21T06:13:15;17.25;;;11.52;;
35330;SDS011;21441;52.190;20.910;2023-11-21T06:15:46;14.23;;;10.55;;
35330;SDS011;21441;52.190;20.910;2023-11-21T06:18:15;13.00;;;9.07;;
35330;SDS011;21441;52.190;20.910;2023-11-21T06:20:45;14.07;;;9.43;;
35330;SDS011;21441;52.190;20.910;2023-11-21T06:23:14;14.70;;;10.52;;
35330;SDS011;21441;52.190;20.910;2023-11-21T06:25:42;13.85;;;10.00;;
35330;SDS011;21441;52.190;20.910;2023-11-21T06:28:10;15.98;;;10.02;;
35330;SDS011;21441;52.190;20.910;2023-11-21T06:30:38;16.77;;;11.45;;
35330;SDS011;21441;52.190;20.910;2023-11-21T06:33:19;16.52;;;10.18;;
35330;SDS011;21441;52.190;20.910;2023-11-21T06:36:18;16.90;;;10.32;;
35330;SDS011;21441;52.190;20.910;2023-11-21T06:38:46;19.13;;;11.30;;
35330;SDS011;21441;52.190;20.910;2023-11-21T06:41:14;18.23;;;10.77;;
35330;SDS011;21441;52.190;20.910;2023-11-21T06:43:42;18.80;;;11.05;;
35330;SDS011;21441;52.190;20.910;2023-11-21T06:46:12;13.52;;;10.55;;
35330;SDS011;21441;52.190;20.910;2023-11-21T06:48:43;16.55;;;10.57;;
35330;SDS011;21441;52.190;20.910;2023-11-21T06:51:11;20.27;;;11.55;;
35330;SDS011;21441;52.190;20.910;2023-11-21T06:53:39;15.45;;;9.73;;
35330;SDS011;21441;52.190;20.910;2023-11-21T06:56:14;16.30;;;10.50;;
35330;SDS011;21441;52.190;20.910;2023-11-21T06:58:42;16.73;;;10.63;;
35330;SDS011;21441;52.190;20.910;2023-11-21T07:01:11;16.23;;;10.38;;
35330;SDS011;21441;52.190;20.910;2023-11-21T07:03:39;15.60;;;10.88;;
35330;SDS011;21441;52.190;20.910;2023-11-21T07:06:09;16.70;;;11.07;;
35330;SDS011;21441;52.190;20.910;2023-11-21T07:08:51;15.95;;;9.90;;
35330;SDS011;21441;52.190;20.910;2023-11-21T07:11:19;16.88;;;11.43;;
35330;SDS011;21441;52.190;20.910;2023-11-21T07:13:47;15.57;;;10.40;;
35330;SDS011;21441;52.190;20.910;2023-11-21T07:16:18;13.88;;;10.15;;
35330;SDS011;21441;52.190;20.910;2023-11-21T07:18:50;16.75;;;10.57;;
35330;SDS011;21441;52.190;20.910;2023-11-21T07:21:29;13.13;;;9.45;;
35330;SDS011;21441;52.190;20.910;2023-11-21T07:24:02;15.05;;;10.18;;
35330;SDS011;21441;52.190;20.910;2023-11-21T07:26:35;15.75;;;11.38;;
35330;SDS011;21441;52.190;20.910;2023-11-21T07:29:07;17.55;;;12.05;;
35330;SDS011;21441;52.190;20.910;2023-11-21T07:31:38;17.42;;;11.70;;
35330;SDS011;21441;52.190;20.910;2023-11-21T07:34:11;18.05;;;13.00;;
35330;SDS011;21441;52.190;20.910;2023-11-21T07:36:39;18.35;;;11.98;;
35330;SDS011;21441;52.190;20.910;2023-11-21T07:39:07;20.58;;;13.35;;
35330;SDS011;21441;52.190;20.910;2023-11-21T07:41:33;15.93;;;11.55;;
35330;SDS011;21441;52.190;20.910;2023-11-21T07:44:01;21.33;;;13.15;;
35330;SDS011;21441;52.190;20.910;2023-11-21T07:46:28;18.05;;;12.32;;
35330;SDS011;21441;52.190;20.910;2023-11-21T07:48:55;17.90;;;12.05;;
35330;SDS011;21441;52.190;20.910;2023-11-21T07:51:22;15.77;;;11.05;;
35330;SDS011;21441;52.190;20.910;2023-11-21T07:53:51;19.85;;;12.68;;
35330;SDS011;21441;52.190;20.910;2023-11-21T07:56:17;16.70;;;10.77;;
35330;SDS011;21441;52.190;20.910;2023-11-21T07:58:52;15.10;;;10.55;;
35330;SDS011;21441;52.190;20.910;2023-11-21T08:01:20;24.17;;;12.55;;
35330;SDS011;21441;52.190;20.910;2023-11-21T08:03:55;17.42;;;12.23;;
35330;SDS011;21441;52.190;20.910;2023-11-21T08:06:27;18.00;;;11.38;;
35330;SDS011;21441;52.190;20.910;2023-11-21T08:08:56;17.45;;;11.60;;
35330;SDS011;21441;52.190;20.910;2023-11-21T08:11:23;19.38;;;11.60;;
35330;SDS011;21441;52.190;20.910;2023-11-21T08:13:52;17.80;;;10.93;;
35330;SDS011;21441;52.190;20.910;2023-11-21T08:16:18;15.23;;;11.07;;
35330;SDS011;21441;52.190;20.910;2023-11-21T08:18:46;17.00;;;11.48;;
35330;SDS011;21441;52.190;20.910;2023-11-21T08:21:13;15.70;;;10.88;;
35330;SDS011;21441;52.190;20.910;2023-11-21T08:23:41;14.25;;;9.55;;
35330;SDS011;21441;52.190;20.910;2023-11-21T08:26:09;14.45;;;11.27;;
35330;SDS011;21441;52.190;20.910;2023-11-21T08:28:36;15.35;;;10.52;;
35330;SDS011;21441;52.190;20.910;2023-11-21T08:31:04;16.10;;;9.98;;
35330;SDS011;21441;52.190;20.910;2023-11-21T08:33:31;19.60;;;9.85;;
35330;SDS011;21441;52.190;20.910;2023-11-21T08:35:58;13.63;;;9.38;;
35330;SDS011;21441;52.190;20.910;2023-11-21T08:38:27;14.52;;;9.70;;
35330;SDS011;21441;52.190;20.910;2023-11-21T08:40:54;16.48;;;10.48;;
35330;SDS011;21441;52.190;20.910;2023-11-21T08:43:22;19.52;;;11.90;;
35330;SDS011;21441;52.190;20.910;2023-11-21T08:45:49;15.60;;;10.82;;
35330;SDS011;21441;52.190;20.910;2023-11-21T08:48:17;15.52;;;10.07;;
35330;SDS011;21441;52.190;20.910;2023-11-21T08:50:44;16.02;;;10.52;;
35330;SDS011;21441;52.190;20.910;2023-11-21T08:53:11;15.52;;;10.05;;
35330;SDS011;21441;52.190;20.910;2023-11-21T08:55:38;17.35;;;11.38;;
35330;SDS011;21441;52.190;20.910;2023-11-21T08:58:05;17.35;;;11.48;;
35330;SDS011;21441;52.190;20.910;2023-11-21T09:00:34;16.67;;;11.75;;
35330;SDS011;21441;52.190;20.910;2023-11-21T09:03:02;16.97;;;11.57;;
35330;SDS011;21441;52.190;20.910;2023-11-21T09:05:34;15.52;;;10.95;;
35330;SDS011;21441;52.190;20.910;2023-11-21T09:08:05;16.35;;;11.18;;
35330;SDS011;21441;52.190;20.910;2023-11-21T09:10:33;16.00;;;10.75;;
35330;SDS011;21441;52.190;20.910;2023-11-21T09:13:02;16.50;;;10.82;;
35330;SDS011;21441;52.190;20.910;2023-11-21T09:15:29;18.75;;;11.13;;
35330;SDS011;21441;52.190;20.910;2023-11-21T09:17:58;16.25;;;10.85;;
35330;SDS011;21441;52.190;20.910;2023-11-21T09:20:25;17.30;;;11.10;;
35330;SDS011;21441;52.190;20.910;2023-11-21T09:22:52;17.55;;;11.55;;
35330;SDS011;21441;52.190;20.910;2023-11-21T09:25:19;17.70;;;11.20;;
35330;SDS011;21441;52.190;20.910;2023-11-21T09:27:47;20.33;;;11.18;;
35330;SDS011;21441;52.190;20.910;2023-11-21T09:30:14;15.73;;;10.40;;
35330;SDS011;21441;52.190;20.910;2023-11-21T09:32:42;17.05;;;11.15;;
35330;SDS011;21441;52.190;20.910;2023-11-21T09:35:12;15.60;;;10.63;;
35330;SDS011;21441;52.190;20.910;2023-11-21T09:37:39;19.17;;;11.40;;
35330;SDS011;21441;52.190;20.910;2023-11-21T09:40:07;15.93;;;10.82;;
35330;SDS011;21441;52.190;20.910;2023-11-21T09:42:40;17.90;;;11.57;;
35330;SDS011;21441;52.190;20.910;2023-11-21T09:45:15;16.10;;;11.25;;
35330;SDS011;21441;52.190;20.910;2023-11-21T09:47:52;19.40;;;12.10;;
35330;SDS011;21441;52.190;20.910;2023-11-21T09:50:21;19.80;;;11.60;;
35330;SDS011;21441;52.190;20.910;2023-11-21T09:52:52;17.10;;;11.18;;
35330;SDS011;21441;52.190;20.910;2023-11-21T09:55:22;19.08;;;12.32;;
35330;SDS011;21441;52.190;20.910;2023-11-21T09:57:54;17.35;;;10.55;;
35330;SDS011;21441;52.190;20.910;2023-11-21T10:00:23;16.85;;;11.07;;
35330;SDS011;21441;52.190;20.910;2023-11-21T10:02:50;16.10;;;11.73;;
35330;SDS011;21441;52.190;20.910;2023-11-21T10:05:18;15.55;;;11.00;;
35330;SDS011;21441;52.190;20.910;2023-11-21T10:07:48;16.02;;;10.13;;
35330;SDS011;21441;52.190;20.910;2023-11-21T10:10:18;17.85;;;11.63;;
35330;SDS011;21441;52.190;20.910;2023-11-21T10:12:48;18.17;;;11.57;;
35330;SDS011;21441;52.190;20.910;2023-11-21T10:15:20;17.17;;;11.43;;
35330;SDS011;21441;52.190;20.910;2023-11-21T10:17:49;17.92;;;11.30;;
35330;SDS011;21441;52.190;20.910;2023-11-21T10:20:19;20.77;;;11.65;;
35330;SDS011;21441;52.190;20.910;2023-11-21T10:22:49;20.48;;;11.85;;
35330;SDS011;21441;52.190;20.910;2023-11-21T10:25:16;18.45;;;12.50;;
35330;SDS011;21441;52.190;20.910;2023-11-21T10:27:47;15.25;;;11.32;;
35330;SDS011;21441;52.190;20.910;2023-11-21T10:30:16;24.50;;;15.18;;
35330;SDS011;21441;52.190;20.910;2023-11-21T10:32:44;17.65;;;12.02;;
35330;SDS011;21441;52.190;20.910;2023-11-21T10:35:12;19.02;;;12.32;;
35330;SDS011;21441;52.190;20.910;2023-11-21T10:37:40;19.40;;;11.95;;
35330;SDS011;21441;52.190;20.910;2023-11-21T10:40:09;13.98;;;10.63;;
35330;SDS011;21441;52.190;20.910;2023-11-21T10:42:37;15.63;;;10.73;;
35330;SDS011;21441;52.190;20.910;2023-11-21T10:45:05;17.20;;;11.32;;
35330;SDS011;21441;52.190;20.910;2023-11-21T10:47:38;16.60;;;11.52;;
35330;SDS011;21441;52.190;20.910;2023-11-21T10:50:06;18.45;;;12.82;;
35330;SDS011;21441;52.190;20.910;2023-11-21T10:52:36;15.85;;;11.48;;
35330;SDS011;21441;52.190;20.910;2023-11-21T10:55:17;14.30;;;11.15;;
35330;SDS011;21441;52.190;20.910;2023-11-21T10:57:45;16.48;;;10.00;;
35330;SDS011;21441;52.190;20.910;2023-11-21T11:00:16;21.40;;;11.45;;
35330;SDS011;21441;52.190;20.910;2023-11-21T11:02:46;15.98;;;9.95;;
35330;SDS011;21441;52.190;20.910;2023-11-21T11:05:16;18.13;;;12.65;;
35330;SDS011;21441;52.190;20.910;2023-11-21T11:10:18;17.48;;;11.55;;
35330;SDS011;21441;52.190;20.910;2023-11-21T11:12:46;18.23;;;11.88;;
35330;SDS011;21441;52.190;20.910;2023-11-21T11:15:13;19.15;;;12.23;;
35330;SDS011;21441;52.190;20.910;2023-11-21T11:17:42;21.25;;;14.25;;
35330;SDS011;21441;52.190;20.910;2023-11-21T11:20:10;18.67;;;12.73;;
35330;SDS011;21441;52.190;20.910;2023-11-21T11:22:43;22.83;;;12.40;;
35330;SDS011;21441;52.190;20.910;2023-11-21T11:25:24;20.98;;;13.25;;
35330;SDS011;21441;52.190;20.910;2023-11-21T11:28:02;17.27;;;12.38;;
35330;SDS011;21441;52.190;20.910;2023-11-21T11:30:37;20.60;;;12.75;;
35330;SDS011;21441;52.190;20.910;2023-11-21T11:33:17;18.27;;;12.70;;
35330;SDS011;21441;52.190;20.910;2023-11-21T11:36:00;18.33;;;11.90;;
35330;SDS011;21441;52.190;20.910;2023-11-21T11:38:31;17.60;;;11.13;;
35330;SDS011;21441;52.190;20.910;2023-11-21T11:41:02;18.83;;;13.20;;
35330;SDS011;21441;52.190;20.910;2023-11-21T11:43:31;18.67;;;12.23;;
35330;SDS011;21441;52.190;20.910;2023-11-21T11:46:05;18.58;;;13.50;;
35330;SDS011;21441;52.190;20.910;2023-11-21T11:48:34;19.30;;;11.68;;
35330;SDS011;21441;52.190;20.910;2023-11-21T11:51:04;19.70;;;13.15;;
35330;SDS011;21441;52.190;20.910;2023-11-21T11:53:37;19.25;;;13.32;;
35330;SDS011;21441;52.190;20.910;2023-11-21T11:56:21;21.50;;;14.07;;
35330;SDS011;21441;52.190;20.910;2023-11-21T11:58:51;17.30;;;11.95;;
35330;SDS011;21441;52.190;20.910;2023-11-21T12:01:19;19.15;;;12.98;;
35330;SDS011;21441;52.190;20.910;2023-11-21T12:07:00;22.10;;;13.45;;
35330;SDS011;21441;52.190;20.910;2023-11-21T12:09:29;18.38;;;13.23;;
35330;SDS011;21441;52.190;20.910;2023-11-21T12:11:59;19.13;;;13.43;;
35330;SDS011;21441;52.190;20.910;2023-11-21T12:14:27;22.90;;;13.60;;
35330;SDS011;21441;52.190;20.910;2023-11-21T12:16:55;21.33;;;14.25;;
35330;SDS011;21441;52.190;20.910;2023-11-21T12:19:22;20.75;;;14.18;;
35330;SDS011;21441;52.190;20.910;2023-11-21T12:21:49;19.42;;;13.35;;
35330;SDS011;21441;52.190;20.910;2023-11-21T12:24:17;21.17;;;14.10;;
35330;SDS011;21441;52.190;20.910;2023-11-21T12:26:45;20.50;;;13.55;;
35330;SDS011;21441;52.190;20.910;2023-11-21T12:29:14;22.20;;;14.13;;
35330;SDS011;21441;52.190;20.910;2023-11-21T12:31:42;26.13;;;14.57;;
35330;SDS011;21441;52.190;20.910;2023-11-21T12:34:10;25.05;;;16.17;;
35330;SDS011;21441;52.190;20.910;2023-11-21T12:36:38;25.30;;;15.82;;
35330;SDS011;21441;52.190;20.910;2023-11-21T12:39:06;20.63;;;13.93;;
35330;SDS011;21441;52.190;20.910;2023-11-21T12:41:37;22.80;;;14.48;;
35330;SDS011;21441;52.190;20.910;2023-11-21T12:44:05;23.27;;;14.52;;
35330;SDS011;21441;52.190;20.910;2023-11-21T12:46:41;26.35;;;16.15;;
35330;SDS011;21441;52.190;20.910;2023-11-21T12:49:10;22.25;;;15.63;;
35330;SDS011;21441;52.190;20.910;2023-11-21T12:51:42;21.90;;;15.15;;
35330;SDS011;21441;52.190;20.910;2023-11-21T12:54:11;23.05;;;13.63;;
35330;SDS011;21441;52.190;20.910;2023-11-21T12:56:39;22.27;;;14.30;;
35330;SDS011;21441;52.190;20.910;2023-11-21T12:59:06;22.15;;;14.85;;
35330;SDS011;21441;52.190;20.910;2023-11-21T13:01:42;22.17;;;15.05;;
35330;SDS011;21441;52.190;20.910;2023-11-21T13:04:10;22.83;;;14.30;;
35330;SDS011;21441;52.190;20.910;2023-11-21T13:06:37;25.52;;;15.68;;
35330;SDS011;21441;52.190;20.910;2023-11-21T13:09:07;23.33;;;15.38;;
35330;SDS011;21441;52.190;20.910;2023-11-21T13:11:36;25.88;;;16.42;;
35330;SDS011;21441;52.190;20.910;2023-11-21T13:14:06;26.73;;;17.15;;
35330;SDS011;21441;52.190;20.910;2023-11-21T13:16:33;21.90;;;15.48;;
35330;SDS011;21441;52.190;20.910;2023-11-21T13:19:02;21.75;;;15.50;;
35330;SDS011;21441;52.190;20.910;2023-11-21T13:21:29;24.55;;;15.05;;
35330;SDS011;21441;52.190;20.910;2023-11-21T13:23:56;21.77;;;14.32;;
35330;SDS011;21441;52.190;20.910;2023-11-21T13:26:23;20.63;;;15.15;;
35330;SDS011;21441;52.190;20.910;2023-11-21T13:28:51;17.85;;;13.93;;
35330;SDS011;21441;52.190;20.910;2023-11-21T13:31:18;20.77;;;13.90;;
35330;SDS011;21441;52.190;20.910;2023-11-21T13:33:52;22.23;;;14.40;;
35330;SDS011;21441;52.190;20.910;2023-11-21T13:36:25;25.27;;;15.57;;
35330;SDS011;21441;52.190;20.910;2023-11-21T13:38:56;22.25;;;13.93;;
35330;SDS011;21441;52.190;20.910;2023-11-21T13:41:24;25.60;;;15.68;;
35330;SDS011;21441;52.190;20.910;2023-11-21T13:43:56;24.25;;;16.00;;
35330;SDS011;21441;52.190;20.910;2023-11-21T13:46:31;23.38;;;15.13;;
35330;SDS011;21441;52.190;20.910;2023-11-21T13:49:02;24.13;;;15.88;;
35330;SDS011;21441;52.190;20.910;2023-11-21T13:51:36;23.00;;;15.68;;
35330;SDS011;21441;52.190;20.910;2023-11-21T13:54:07;23.80;;;16.55;;
35330;SDS011;21441;52.190;20.910;2023-11-21T13:56:34;25.40;;;16.98;;
35330;SDS011;21441;52.190;20.910;2023-11-21T13:59:02;23.52;;;16.30;;
35330;SDS011;21441;52.190;20.910;2023-11-21T14:01:38;24.05;;;16.15;;
35330;SDS011;21441;52.190;20.910;2023-11-21T14:04:20;24.77;;;16.40;;
35330;SDS011;21441;52.190;20.910;2023-11-21T14:07:02;22.10;;;15.60;;
35330;SDS011;21441;52.190;20.910;2023-11-21T14:09:46;22.42;;;15.45;;
35330;SDS011;21441;52.190;20.910;2023-11-21T14:12:15;20.88;;;15.48;;
35330;SDS011;21441;52.190;20.910;2023-11-21T14:14:42;24.48;;;15.13;;
35330;SDS011;21441;52.190;20.910;2023-11-21T14:17:10;25.27;;;16.35;;
35330;SDS011;21441;52.190;20.910;2023-11-21T14:19:47;21.75;;;14.75;;
35330;SDS011;21441;52.190;20.910;2023-11-21T14:22:16;21.13;;;14.82;;
35330;SDS011;21441;52.190;20.910;2023-11-21T14:24:44;22.35;;;15.15;;
35330;SDS011;21441;52.190;20.910;2023-11-21T14:27:12;19.45;;;13.98;;